Saint Louis, MO

9:01 AM CDT on October 21, 2014 (GMT -0500)
Webster Groves | Change Station
CLOSE
Current Station
Personal Weather Station
Location: Webster Groves, MO
Elevation: 571 ft
Nearby Weather Stations

Elev 571 ft 38.59 °N, 90.35 °W | Updated 1 minute ago

Clear
Clear
54.5 °F
Feels Like 54.5 °F
N
1.0
Wind Variable Wind from WSW

Today
High -- | Low -- °F
--% Chance of Precip.
Yesterday
High -- | Low -- °F
Precip. -- in
7:16 AM 6:14 PM
Waning Crescent, 5% visible
Pressure 30.12 in
Visibility 10.0 miles
Clouds Clear
Dew Point 43 °F
Humidity 66%
Rainfall 0.00 in
Snow Depth Not available.
UV 1 out of 12
Pollen 2.50 out of 12
Ozone Good
PM2.5 Good
Flu Activity No Activity
METAR KSTL 211351Z 34003KT 10SM CLR 13/08 A3012 RMK AO2 SLP197 T01280078

More Conditions Fewer Conditions

Pressure 30.12 in
Visibility 10.0 miles
Clouds Clear
Dew Point 43 °F
Humidity 66%
Rainfall 0.00 in
Snow Depth Not available.
UV 1 out of 12
Pollen 2.50 out of 12
Ozone Good
PM2.5 Good
Flu Activity No Activity
METAR KSTL 211351Z 34003KT 10SM CLR 13/08 A3012 RMK AO2 SLP197 T01280078

More Conditions Fewer Conditions

10-Day Weather Forecast

Almanac

Astronomy

Oct. 21, 2014 Rise Set
Actual Time 7:16 AM CDT 6:14 PM CDT
Civil Twilight 6:49 AM CDT 6:41 PM CDT
Nautical Twilight 6:18 AM CDT 7:12 PM CDT
Astronomical Twilight 5:47 AM CDT 7:43 PM CDT
Moon 5:02 AM CDT 5:07 PM CDT
Length of Visible Light 11h 52m
Length of Day
10h 58m
Tomorrow will be 2m 21s shorter.
Waning Crescent, 5% of the Moon is Illuminated
Today
Waning Crescent
Oct 23
New
Oct 30
First Quarter
Nov 6
Full
Nov 14
Last Quarter

Today's Extremes

State Highs State Lows

Community

WunderPhotos

Upload Photos

1,763,666 photos uploaded!

Nearby

Air Quality

  Air Quality AQ Index Pollutant
Yesterday Good
OZONE
Yesterday Good
PM2.5
Current Good
PM2.5
Current Good
OZONE
Tuesday Good
PM2.5

Snow Depth

Station Depth Elevation
No new snow has been reported.

Earthquake Activity

City Distance Mag. Time & Date
No recent earthquake activity has been reported nearby.
Minimum magnitude displayed is 2.5.

Coastal Water Temperatures

Place Temperature
No Stations Reporting

Nearby Weather Stations